sensor_id;sensor_type;location;lat;lon;timestamp;pressure;altitude;pressure_sealevel;temperature;humidity
64080;BME280;51042;49.696;10.808;2022-12-07T00:01:28;98421.63;;;2.01;100.00
64080;BME280;51042;49.696;10.808;2022-12-07T00:03:57;98428.59;;;2.02;100.00
64080;BME280;51042;49.696;10.808;2022-12-07T00:06:29;98427.03;;;2.01;100.00
64080;BME280;51042;49.696;10.808;2022-12-07T00:08:55;98424.69;;;2.00;100.00
64080;BME280;51042;49.696;10.808;2022-12-07T00:11:21;98424.28;;;1.98;100.00
64080;BME280;51042;49.696;10.808;2022-12-07T00:13:51;98412.28;;;1.95;100.00
64080;BME280;51042;49.696;10.808;2022-12-07T00:16:22;98417.31;;;1.97;100.00
64080;BME280;51042;49.696;10.808;2022-12-07T00:18:48;98415.78;;;1.96;100.00
64080;BME280;51042;49.696;10.808;2022-12-07T00:21:18;98420.00;;;1.97;100.00
64080;BME280;51042;49.696;10.808;2022-12-07T00:23:46;98422.72;;;1.97;100.00
64080;BME280;51042;49.696;10.808;2022-12-07T00:26:13;98419.25;;;1.96;100.00
64080;BME280;51042;49.696;10.808;2022-12-07T00:28:40;98419.25;;;1.96;100.00
64080;BME280;51042;49.696;10.808;2022-12-07T00:31:10;98423.13;;;1.95;100.00
64080;BME280;51042;49.696;10.808;2022-12-07T00:33:37;98418.09;;;1.97;100.00
64080;BME280;51042;49.696;10.808;2022-12-07T00:36:03;98414.22;;;1.95;100.00
64080;BME280;51042;49.696;10.808;2022-12-07T00:38:32;98411.50;;;1.95;100.00
64080;BME280;51042;49.696;10.808;2022-12-07T00:41:00;98413.06;;;1.96;100.00
64080;BME280;51042;49.696;10.808;2022-12-07T00:43:46;98412.28;;;1.95;100.00
64080;BME280;51042;49.696;10.808;2022-12-07T00:46:13;98408.03;;;1.94;100.00
64080;BME280;51042;49.696;10.808;2022-12-07T00:48:39;98405.31;;;1.94;100.00
64080;BME280;51042;49.696;10.808;2022-12-07T00:51:05;98401.44;;;1.92;100.00
64080;BME280;51042;49.696;10.808;2022-12-07T00:53:31;98406.06;;;1.91;100.00
64080;BME280;51042;49.696;10.808;2022-12-07T00:56:04;98404.53;;;1.90;100.00
64080;BME280;51042;49.696;10.808;2022-12-07T00:58:52;98399.09;;;1.87;100.00
64080;BME280;51042;49.696;10.808;2022-12-07T01:01:19;98403.34;;;1.88;100.00
64080;BME280;51042;49.696;10.808;2022-12-07T01:03:45;98398.31;;;1.86;100.00
64080;BME280;51042;49.696;10.808;2022-12-07T01:06:13;98406.78;;;1.85;100.00
64080;BME280;51042;49.696;10.808;2022-12-07T01:08:40;98396.38;;;1.83;100.00
64080;BME280;51042;49.696;10.808;2022-12-07T01:11:06;98397.88;;;1.81;100.00
64080;BME280;51042;49.696;10.808;2022-12-07T01:13:33;98404.44;;;1.80;100.00
64080;BME280;51042;49.696;10.808;2022-12-07T01:16:00;98398.66;;;1.81;100.00
64080;BME280;51042;49.696;10.808;2022-12-07T01:18:29;98399.81;;;1.80;100.00
64080;BME280;51042;49.696;10.808;2022-12-07T01:20:59;98400.59;;;1.81;100.00
64080;BME280;51042;49.696;10.808;2022-12-07T01:23:29;98401.38;;;1.81;100.00
64080;BME280;51042;49.696;10.808;2022-12-07T01:26:01;98397.53;;;1.82;100.00
64080;BME280;51042;49.696;10.808;2022-12-07T01:28:28;98400.22;;;1.82;100.00
64080;BME280;51042;49.696;10.808;2022-12-07T01:31:01;98404.44;;;1.80;100.00
64080;BME280;51042;49.696;10.808;2022-12-07T01:33:29;98408.31;;;1.79;100.00
64080;BME280;51042;49.696;10.808;2022-12-07T01:38:29;98408.28;;;1.75;100.00
64080;BME280;51042;49.696;10.808;2022-12-07T01:40:55;98408.28;;;1.72;100.00
64080;BME280;51042;49.696;10.808;2022-12-07T01:43:21;98403.22;;;1.70;100.00
64080;BME280;51042;49.696;10.808;2022-12-07T01:45:49;98399.75;;;1.70;100.00
64080;BME280;51042;49.696;10.808;2022-12-07T01:48:15;98402.03;;;1.68;100.00
64080;BME280;51042;49.696;10.808;2022-12-07T01:50:45;98393.53;;;1.66;100.00
64080;BME280;51042;49.696;10.808;2022-12-07T01:53:13;98397.41;;;1.64;100.00
64080;BME280;51042;49.696;10.808;2022-12-07T01:55:40;98401.25;;;1.63;100.00
64080;BME280;51042;49.696;10.808;2022-12-07T01:58:09;98390.41;;;1.60;100.00
64080;BME280;51042;49.696;10.808;2022-12-07T02:00:36;98401.59;;;1.58;100.00
64080;BME280;51042;49.696;10.808;2022-12-07T02:03:04;98390.00;;;1.54;100.00
64080;BME280;51042;49.696;10.808;2022-12-07T02:05:34;98387.59;;;1.46;100.00
64080;BME280;51042;49.696;10.808;2022-12-07T02:08:03;98377.06;;;1.34;100.00
64080;BME280;51042;49.696;10.808;2022-12-07T02:10:29;98371.16;;;1.21;100.00
64080;BME280;51042;49.696;10.808;2022-12-07T02:12:57;98364.50;;;1.08;100.00
64080;BME280;51042;49.696;10.808;2022-12-07T02:15:31;98368.31;;;1.03;100.00
64080;BME280;51042;49.696;10.808;2022-12-07T02:20:56;98361.34;;;0.99;100.00
64080;BME280;51042;49.696;10.808;2022-12-07T02:23:51;98360.91;;;0.97;100.00
64080;BME280;51042;49.696;10.808;2022-12-07T02:26:44;98355.84;;;0.92;100.00
64080;BME280;51042;49.696;10.808;2022-12-07T02:29:23;98359.31;;;0.89;100.00
64080;BME280;51042;49.696;10.808;2022-12-07T02:31:56;98350.38;;;0.85;100.00
64080;BME280;51042;49.696;10.808;2022-12-07T02:42:49;98365.25;;;1.08;100.00
64080;BME280;51042;49.696;10.808;2022-12-07T02:45:20;98356.06;;;1.13;100.00
64080;BME280;51042;49.696;10.808;2022-12-07T02:47:48;98342.56;;;1.13;100.00
64080;BME280;51042;49.696;10.808;2022-12-07T02:50:20;98342.13;;;1.11;100.00
64080;BME280;51042;49.696;10.808;2022-12-07T02:52:46;98349.09;;;1.12;100.00
64080;BME280;51042;49.696;10.808;2022-12-07T02:55:11;98346.41;;;1.12;100.00
64080;BME280;51042;49.696;10.808;2022-12-07T02:57:53;98355.31;;;1.16;100.00
64080;BME280;51042;49.696;10.808;2022-12-07T03:00:33;98371.59;;;1.23;100.00
64080;BME280;51042;49.696;10.808;2022-12-07T03:03:10;98375.44;;;1.26;100.00
64080;BME280;51042;49.696;10.808;2022-12-07T03:11:33;98350.31;;;1.18;100.00
64080;BME280;51042;49.696;10.808;2022-12-07T03:14:17;98339.34;;;1.00;100.00
64080;BME280;51042;49.696;10.808;2022-12-07T03:17:16;98352.66;;;0.79;100.00
64080;BME280;51042;49.696;10.808;2022-12-07T03:20:04;98358.38;;;0.74;100.00
64080;BME280;51042;49.696;10.808;2022-12-07T03:22:33;98359.59;;;0.76;100.00
64080;BME280;51042;49.696;10.808;2022-12-07T03:25:03;98356.09;;;0.76;100.00
64080;BME280;51042;49.696;10.808;2022-12-07T03:27:50;98354.56;;;0.78;100.00
64080;BME280;51042;49.696;10.808;2022-12-07T03:30:25;98344.97;;;0.81;100.00
64080;BME280;51042;49.696;10.808;2022-12-07T03:32:57;98343.41;;;0.83;100.00
64080;BME280;51042;49.696;10.808;2022-12-07T03:35:34;98341.13;;;0.86;100.00
64080;BME280;51042;49.696;10.808;2022-12-07T03:38:11;98343.41;;;0.83;100.00
64080;BME280;51042;49.696;10.808;2022-12-07T03:41:05;98350.81;;;0.90;100.00
64080;BME280;51042;49.696;10.808;2022-12-07T03:43:33;98349.34;;;0.96;100.00
64080;BME280;51042;49.696;10.808;2022-12-07T03:51:50;98347.47;;;1.04;100.00
64080;BME280;51042;49.696;10.808;2022-12-07T03:54:23;98340.16;;;1.04;100.00
64080;BME280;51042;49.696;10.808;2022-12-07T03:56:53;98343.63;;;1.01;100.00
64080;BME280;51042;49.696;10.808;2022-12-07T03:59:20;98342.41;;;0.95;100.00
64080;BME280;51042;49.696;10.808;2022-12-07T04:01:54;98338.88;;;0.91;100.00
64080;BME280;51042;49.696;10.808;2022-12-07T04:04:21;98332.63;;;0.83;100.00
64080;BME280;51042;49.696;10.808;2022-12-07T04:06:50;98331.09;;;0.82;100.00
64080;BME280;51042;49.696;10.808;2022-12-07T04:09:16;98328.38;;;0.82;100.00
64080;BME280;51042;49.696;10.808;2022-12-07T04:11:42;98329.19;;;0.87;100.00
64080;BME280;51042;49.696;10.808;2022-12-07T04:14:07;98322.22;;;0.86;100.00
64080;BME280;51042;49.696;10.808;2022-12-07T04:16:45;98326.50;;;0.87;100.00
64080;BME280;51042;49.696;10.808;2022-12-07T04:19:10;98327.28;;;0.91;100.00
64080;BME280;51042;49.696;10.808;2022-12-07T04:21:36;98322.72;;;0.95;100.00
64080;BME280;51042;49.696;10.808;2022-12-07T04:24:02;98325.06;;;1.00;100.00
64080;BME280;51042;49.696;10.808;2022-12-07T04:26:28;98321.25;;;1.04;100.00
64080;BME280;51042;49.696;10.808;2022-12-07T04:28:54;98317.03;;;1.07;100.00
64080;BME280;51042;49.696;10.808;2022-12-07T04:31:19;98322.78;;;1.05;100.00
64080;BME280;51042;49.696;10.808;2022-12-07T04:33:44;98322.03;;;1.08;100.00
64080;BME280;51042;49.696;10.808;2022-12-07T04:36:09;98325.16;;;1.10;100.00
64080;BME280;51042;49.696;10.808;2022-12-07T04:38:35;98325.94;;;1.14;100.00
64080;BME280;51042;49.696;10.808;2022-12-07T04:41:04;98327.88;;;1.14;100.00
64080;BME280;51042;49.696;10.808;2022-12-07T04:43:31;98320.88;;;1.09;100.00
64080;BME280;51042;49.696;10.808;2022-12-07T04:45:56;98321.66;;;1.10;100.00
64080;BME280;51042;49.696;10.808;2022-12-07T04:48:21;98323.63;;;1.13;100.00
64080;BME280;51042;49.696;10.808;2022-12-07T04:50:47;98319.75;;;1.14;100.00
64080;BME280;51042;49.696;10.808;2022-12-07T04:53:16;98325.94;;;1.14;100.00
64080;BME280;51042;49.696;10.808;2022-12-07T04:55:42;98316.31;;;1.17;100.00
64080;BME280;51042;49.696;10.808;2022-12-07T04:58:08;98308.22;;;1.17;100.00
64080;BME280;51042;49.696;10.808;2022-12-07T05:00:34;98319.75;;;1.14;100.00
64080;BME280;51042;49.696;10.808;2022-12-07T05:02:59;98318.56;;;1.08;100.00
64080;BME280;51042;49.696;10.808;2022-12-07T05:05:24;98325.50;;;1.09;100.00
64080;BME280;51042;49.696;10.808;2022-12-07T05:07:50;98328.22;;;1.09;100.00
64080;BME280;51042;49.696;10.808;2022-12-07T05:10:15;98327.44;;;1.08;100.00
64080;BME280;51042;49.696;10.808;2022-12-07T05:12:41;98332.09;;;1.11;100.00
64080;BME280;51042;49.696;10.808;2022-12-07T05:15:06;98330.56;;;1.10;100.00
64080;BME280;51042;49.696;10.808;2022-12-07T05:17:32;98321.31;;;1.11;100.00
64080;BME280;51042;49.696;10.808;2022-12-07T05:19:57;98320.13;;;1.09;100.00
64080;BME280;51042;49.696;10.808;2022-12-07T05:22:23;98330.56;;;1.10;100.00
64080;BME280;51042;49.696;10.808;2022-12-07T05:24:52;98323.59;;;1.09;100.00
64080;BME280;51042;49.696;10.808;2022-12-07T05:27:18;98327.84;;;1.10;100.00
64080;BME280;51042;49.696;10.808;2022-12-07T05:29:43;98321.31;;;1.11;100.00
64080;BME280;51042;49.696;10.808;2022-12-07T05:32:08;98318.63;;;1.15;100.00
64080;BME280;51042;49.696;10.808;2022-12-07T05:34:34;98324.44;;;1.17;100.00
64080;BME280;51042;49.696;10.808;2022-12-07T05:36:59;98321.31;;;1.15;100.00
64080;BME280;51042;49.696;10.808;2022-12-07T05:39:24;98326.34;;;1.16;100.00
64080;BME280;51042;49.696;10.808;2022-12-07T05:41:50;98332.53;;;1.17;100.00
64080;BME280;51042;49.696;10.808;2022-12-07T05:44:34;98321.38;;;1.18;100.00
64080;BME280;51042;49.696;10.808;2022-12-07T05:46:59;98313.63;;;1.20;100.00
64080;BME280;51042;49.696;10.808;2022-12-07T05:49:24;98329.50;;;1.26;100.00
64080;BME280;51042;49.696;10.808;2022-12-07T05:51:50;98324.50;;;1.28;100.00
64080;BME280;51042;49.696;10.808;2022-12-07T05:54:15;98325.69;;;1.30;100.00
64080;BME280;51042;49.696;10.808;2022-12-07T05:56:40;98323.00;;;1.30;100.00
64080;BME280;51042;49.696;10.808;2022-12-07T05:59:05;98312.97;;;1.31;100.00
64080;BME280;51042;49.696;10.808;2022-12-07T06:04:18;98310.22;;;1.27;100.00
64080;BME280;51042;49.696;10.808;2022-12-07T06:06:44;98310.19;;;1.23;100.00
64080;BME280;51042;49.696;10.808;2022-12-07T06:09:10;98309.00;;;1.21;100.00
64080;BME280;51042;49.696;10.808;2022-12-07T06:11:35;98311.34;;;1.22;100.00
64080;BME280;51042;49.696;10.808;2022-12-07T06:14:19;98308.28;;;1.24;100.00
64080;BME280;51042;49.696;10.808;2022-12-07T06:16:45;98312.13;;;1.27;100.00
64080;BME280;51042;49.696;10.808;2022-12-07T06:19:11;98300.97;;;1.28;100.00
64080;BME280;51042;49.696;10.808;2022-12-07T06:21:36;98311.41;;;1.30;100.00
64080;BME280;51042;49.696;10.808;2022-12-07T06:24:01;98314.13;;;1.33;100.00
64080;BME280;51042;49.696;10.808;2022-12-07T06:26:27;98311.81;;;1.35;100.00
64080;BME280;51042;49.696;10.808;2022-12-07T06:28:52;98310.28;;;1.38;100.00
64080;BME280;51042;49.696;10.808;2022-12-07T06:31:17;98308.00;;;1.40;100.00
64080;BME280;51042;49.696;10.808;2022-12-07T06:33:43;98309.13;;;1.39;100.00
64080;BME280;51042;49.696;10.808;2022-12-07T06:36:08;98304.91;;;1.41;100.00
64080;BME280;51042;49.696;10.808;2022-12-07T06:38:34;98314.59;;;1.42;100.00
64080;BME280;51042;49.696;10.808;2022-12-07T06:41:00;98310.69;;;1.40;100.00
64080;BME280;51042;49.696;10.808;2022-12-07T06:43:25;98309.97;;;1.43;100.00
64080;BME280;51042;49.696;10.808;2022-12-07T06:45:50;98311.91;;;1.46;100.00
64080;BME280;51042;49.696;10.808;2022-12-07T06:48:16;98306.13;;;1.47;100.00
64080;BME280;51042;49.696;10.808;2022-12-07T06:50:44;98303.41;;;1.47;100.00
64080;BME280;51042;49.696;10.808;2022-12-07T06:53:10;98308.44;;;1.49;100.00
64080;BME280;51042;49.696;10.808;2022-12-07T06:55:35;98308.03;;;1.47;100.00
64080;BME280;51042;49.696;10.808;2022-12-07T06:58:00;98313.84;;;1.49;100.00
64080;BME280;51042;49.696;10.808;2022-12-07T07:00:26;98311.56;;;1.54;100.00
64080;BME280;51042;49.696;10.808;2022-12-07T07:02:52;98319.66;;;1.51;100.00
64080;BME280;51042;49.696;10.808;2022-12-07T07:05:17;98330.88;;;1.53;100.00
64080;BME280;51042;49.696;10.808;2022-12-07T07:07:42;98336.28;;;1.56;100.00
64080;BME280;51042;49.696;10.808;2022-12-07T07:10:08;98334.00;;;1.62;100.00
64080;BME280;51042;49.696;10.808;2022-12-07T07:12:34;98338.69;;;1.65;100.00
64080;BME280;51042;49.696;10.808;2022-12-07T07:14:59;98337.13;;;1.64;100.00
64080;BME280;51042;49.696;10.808;2022-12-07T07:17:24;98346.78;;;1.65;100.00
64080;BME280;51042;49.696;10.808;2022-12-07T07:19:49;98334.84;;;1.70;100.00
64080;BME280;51042;49.696;10.808;2022-12-07T07:22:15;98335.25;;;1.75;100.00
64080;BME280;51042;49.696;10.808;2022-12-07T07:24:40;98333.72;;;1.78;100.00
64080;BME280;51042;49.696;10.808;2022-12-07T07:27:05;98339.91;;;1.78;100.00
64080;BME280;51042;49.696;10.808;2022-12-07T07:29:31;98333.34;;;1.79;100.00
64080;BME280;51042;49.696;10.808;2022-12-07T07:31:56;98336.41;;;1.74;100.00
64080;BME280;51042;49.696;10.808;2022-12-07T07:34:21;98333.31;;;1.76;100.00
64080;BME280;51042;49.696;10.808;2022-12-07T07:36:47;98332.19;;;1.77;100.00
64080;BME280;51042;49.696;10.808;2022-12-07T07:39:12;98333.31;;;1.76;100.00
64080;BME280;51042;49.696;10.808;2022-12-07T07:41:37;98338.00;;;1.79;100.00
64080;BME280;51042;49.696;10.808;2022-12-07T07:44:03;98341.50;;;1.83;100.00
64080;BME280;51042;49.696;10.808;2022-12-07T07:46:29;98338.38;;;1.81;100.00
64080;BME280;51042;49.696;10.808;2022-12-07T07:48:54;98337.22;;;1.85;100.00
64080;BME280;51042;49.696;10.808;2022-12-07T07:51:19;98330.31;;;1.88;100.00
64080;BME280;51042;49.696;10.808;2022-12-07T07:53:45;98335.34;;;1.89;100.00
64080;BME280;51042;49.696;10.808;2022-12-07T07:56:11;98323.75;;;1.89;100.00
64080;BME280;51042;49.696;10.808;2022-12-07T07:58:36;98326.81;;;1.91;100.00
64080;BME280;51042;49.696;10.808;2022-12-07T08:01:04;98328.78;;;1.94;100.00
64080;BME280;51042;49.696;10.808;2022-12-07T08:03:30;98331.13;;;1.95;100.00
64080;BME280;51042;49.696;10.808;2022-12-07T08:05:56;98328.41;;;1.95;100.00
64080;BME280;51042;49.696;10.808;2022-12-07T08:08:21;98323.38;;;1.97;100.00
64080;BME280;51042;49.696;10.808;2022-12-07T08:10:47;98327.28;;;2.03;100.00
64080;BME280;51042;49.696;10.808;2022-12-07T08:13:14;98326.91;;;2.01;100.00
64080;BME280;51042;49.696;10.808;2022-12-07T08:15:42;98337.31;;;2.03;100.00
64080;BME280;51042;49.696;10.808;2022-12-07T08:18:09;98334.25;;;2.04;100.00
64080;BME280;51042;49.696;10.808;2022-12-07T08:20:35;98327.28;;;2.03;100.00
64080;BME280;51042;49.696;10.808;2022-12-07T08:23:01;98329.59;;;2.09;100.00
64080;BME280;51042;49.696;10.808;2022-12-07T08:25:27;98337.75;;;2.12;100.00
64080;BME280;51042;49.696;10.808;2022-12-07T08:27:53;98337.41;;;2.17;100.00
64080;BME280;51042;49.696;10.808;2022-12-07T08:30:19;98335.47;;;2.21;100.00
64080;BME280;51042;49.696;10.808;2022-12-07T08:32:45;98332.38;;;2.23;100.00
64080;BME280;51042;49.696;10.808;2022-12-07T08:35:12;98345.19;;;2.29;100.00
64080;BME280;51042;49.696;10.808;2022-12-07T08:37:38;98351.00;;;2.38;100.00
64080;BME280;51042;49.696;10.808;2022-12-07T08:40:04;98342.88;;;2.35;100.00
64080;BME280;51042;49.696;10.808;2022-12-07T08:42:31;98347.13;;;2.39;100.00
64080;BME280;51042;49.696;10.808;2022-12-07T08:45:04;98345.22;;;2.40;100.00
64080;BME280;51042;49.696;10.808;2022-12-07T08:47:31;98341.31;;;2.34;100.00
64080;BME280;51042;49.696;10.808;2022-12-07T08:49:57;98349.84;;;2.32;100.00
64080;BME280;51042;49.696;10.808;2022-12-07T08:52:28;98339.38;;;2.34;100.00
64080;BME280;51042;49.696;10.808;2022-12-07T08:54:54;98340.53;;;2.33;100.00
64080;BME280;51042;49.696;10.808;2022-12-07T08:57:20;98346.41;;;2.46;100.00
64080;BME280;51042;49.696;10.808;2022-12-07T08:59:46;98350.28;;;2.52;100.00
64080;BME280;51042;49.696;10.808;2022-12-07T09:02:11;98347.97;;;2.54;100.00
64080;BME280;51042;49.696;10.808;2022-12-07T09:04:36;98349.13;;;2.57;100.00
64080;BME280;51042;49.696;10.808;2022-12-07T09:07:02;98344.13;;;2.59;100.00
64080;BME280;51042;49.696;10.808;2022-12-07T09:09:28;98346.41;;;2.53;100.00
64080;BME280;51042;49.696;10.808;2022-12-07T09:11:54;98344.13;;;2.55;100.00
64080;BME280;51042;49.696;10.808;2022-12-07T09:14:19;98347.59;;;2.56;100.00
64080;BME280;51042;49.696;10.808;2022-12-07T09:16:44;98354.94;;;2.55;100.00
64080;BME280;51042;49.696;10.808;2022-12-07T09:19:10;98350.69;;;2.58;100.00
64080;BME280;51042;49.696;10.808;2022-12-07T09:21:35;98355.72;;;2.63;100.00
64080;BME280;51042;49.696;10.808;2022-12-07T09:24:00;98360.00;;;2.60;100.00
64080;BME280;51042;49.696;10.808;2022-12-07T09:26:26;98350.34;;;2.66;100.00
64080;BME280;51042;49.696;10.808;2022-12-07T09:28:51;98360.75;;;2.64;100.00
64080;BME280;51042;49.696;10.808;2022-12-07T09:31:17;98351.88;;;2.64;100.00
64080;BME280;51042;49.696;10.808;2022-12-07T09:33:42;98358.44;;;2.63;100.00
64080;BME280;51042;49.696;10.808;2022-12-07T09:36:08;98364.25;;;2.68;100.00
64080;BME280;51042;49.696;10.808;2022-12-07T09:38:34;98361.94;;;2.70;100.00
64080;BME280;51042;49.696;10.808;2022-12-07T09:41:03;98360.78;;;2.71;100.00
64080;BME280;51042;49.696;10.808;2022-12-07T09:43:30;98358.47;;;2.66;100.00
64080;BME280;51042;49.696;10.808;2022-12-07T09:45:55;98352.66;;;2.68;100.00
64080;BME280;51042;49.696;10.808;2022-12-07T09:48:22;98350.69;;;2.68;100.00
64080;BME280;51042;49.696;10.808;2022-12-07T09:50:53;98346.06;;;2.69;100.00
64080;BME280;51042;49.696;10.808;2022-12-07T09:53:29;98354.97;;;2.66;100.00
64080;BME280;51042;49.696;10.808;2022-12-07T09:56:00;98350.72;;;2.65;100.00
64080;BME280;51042;49.696;10.808;2022-12-07T09:58:27;98348.00;;;2.68;100.00
64080;BME280;51042;49.696;10.808;2022-12-07T10:01:05;98355.38;;;2.68;100.00
64080;BME280;51042;49.696;10.808;2022-12-07T10:03:35;98346.47;;;2.71;100.00
64080;BME280;51042;49.696;10.808;2022-12-07T10:06:04;98349.56;;;2.73;100.00
64080;BME280;51042;49.696;10.808;2022-12-07T10:08:30;98351.88;;;2.74;100.00
64080;BME280;51042;49.696;10.808;2022-12-07T10:10:56;98350.75;;;2.79;100.00
64080;BME280;51042;49.696;10.808;2022-12-07T10:13:34;98345.31;;;2.82;100.00
64080;BME280;51042;49.696;10.808;2022-12-07T10:16:03;98342.59;;;2.86;100.00
64080;BME280;51042;49.696;10.808;2022-12-07T10:18:38;98348.44;;;2.88;100.00
64080;BME280;51042;49.696;10.808;2022-12-07T10:21:19;98337.22;;;2.90;100.00
64080;BME280;51042;49.696;10.808;2022-12-07T10:29:23;98336.44;;;2.89;100.00
64080;BME280;51042;49.696;10.808;2022-12-07T10:32:23;98337.22;;;2.93;100.00
64080;BME280;51042;49.696;10.808;2022-12-07T10:37:53;98328.31;;;3.00;100.00
64080;BME280;51042;49.696;10.808;2022-12-07T10:40:31;98335.66;;;2.96;100.00
64080;BME280;51042;49.696;10.808;2022-12-07T10:46:25;98332.19;;;2.95;100.00
64080;BME280;51042;49.696;10.808;2022-12-07T10:49:07;98331.81;;;2.97;100.00
64080;BME280;51042;49.696;10.808;2022-12-07T11:00:10;98317.84;;;2.98;100.00
64080;BME280;51042;49.696;10.808;2022-12-07T11:08:14;98327.53;;;2.96;100.00
64080;BME280;51042;49.696;10.808;2022-12-07T11:10:55;98329.47;;;2.95;100.00
64080;BME280;51042;49.696;10.808;2022-12-07T11:13:44;98313.22;;;2.92;100.00
64080;BME280;51042;49.696;10.808;2022-12-07T11:24:20;98307.00;;;3.16;100.00
64080;BME280;51042;49.696;10.808;2022-12-07T11:38:17;98296.16;;;3.44;100.00
64080;BME280;51042;49.696;10.808;2022-12-07T11:40:48;98291.53;;;3.31;100.00
64080;BME280;51042;49.696;10.808;2022-12-07T11:45:42;98288.41;;;3.36;100.00
64080;BME280;51042;49.696;10.808;2022-12-07T11:48:14;98289.19;;;3.43;100.00
64080;BME280;51042;49.696;10.808;2022-12-07T11:50:48;98289.19;;;3.43;100.00
64080;BME280;51042;49.696;10.808;2022-12-07T11:53:20;98283.38;;;3.45;100.00
64080;BME280;51042;49.696;10.808;2022-12-07T11:55:52;98284.91;;;3.46;100.00
64080;BME280;51042;49.696;10.808;2022-12-07T12:06:34;98274.06;;;3.56;100.00
64080;BME280;51042;49.696;10.808;2022-12-07T12:09:13;98268.59;;;3.63;100.00
64080;BME280;51042;49.696;10.808;2022-12-07T12:16:54;98267.06;;;3.52;100.00
64080;BME280;51042;49.696;10.808;2022-12-07T12:20:04;98254.66;;;3.54;100.00
64080;BME280;51042;49.696;10.808;2022-12-07T12:22:41;98259.69;;;3.52;100.00
64080;BME280;51042;49.696;10.808;2022-12-07T12:25:27;98247.69;;;3.57;100.00
64080;BME280;51042;49.696;10.808;2022-12-07T12:27:58;98260.47;;;3.60;100.00
64080;BME280;51042;49.696;10.808;2022-12-07T12:33:13;98257.72;;;3.63;99.75
64080;BME280;51042;49.696;10.808;2022-12-07T12:44:00;98249.56;;;3.74;100.00
64080;BME280;51042;49.696;10.808;2022-12-07T12:59:34;98239.94;;;3.62;97.68
64080;BME280;51042;49.696;10.808;2022-12-07T13:02:23;98242.22;;;3.67;97.73
64080;BME280;51042;49.696;10.808;2022-12-07T13:10:04;98225.94;;;3.67;97.31
64080;BME280;51042;49.696;10.808;2022-12-07T13:31:12;98220.94;;;3.55;100.00
64080;BME280;51042;49.696;10.808;2022-12-07T13:33:38;98228.69;;;3.53;98.84
64080;BME280;51042;49.696;10.808;2022-12-07T13:36:18;98211.25;;;3.58;99.14
64080;BME280;51042;49.696;10.808;2022-12-07T13:38:51;98218.59;;;3.61;98.14
64080;BME280;51042;49.696;10.808;2022-12-07T13:41:25;98218.63;;;3.57;97.58
64080;BME280;51042;49.696;10.808;2022-12-07T13:43:54;98216.66;;;3.58;98.04
64080;BME280;51042;49.696;10.808;2022-12-07T13:46:27;98219.00;;;3.59;98.49
64080;BME280;51042;49.696;10.808;2022-12-07T13:49:00;98216.28;;;3.63;99.07
64080;BME280;51042;49.696;10.808;2022-12-07T13:51:26;98215.91;;;3.61;98.26
64080;BME280;51042;49.696;10.808;2022-12-07T13:54:01;98217.44;;;3.58;98.52
64080;BME280;51042;49.696;10.808;2022-12-07T13:56:36;98211.63;;;3.60;98.77
64080;BME280;51042;49.696;10.808;2022-12-07T13:59:04;98217.06;;;3.60;98.41
64080;BME280;51042;49.696;10.808;2022-12-07T14:01:35;98212.78;;;3.62;98.51
64080;BME280;51042;49.696;10.808;2022-12-07T14:07:22;98211.59;;;3.70;97.45
64080;BME280;51042;49.696;10.808;2022-12-07T14:10:53;98212.75;;;3.73;96.77
64080;BME280;51042;49.696;10.808;2022-12-07T14:12:49;98219.38;;;3.68;95.95
64080;BME280;51042;49.696;10.808;2022-12-07T14:15:26;98214.31;;;3.63;96.47
64080;BME280;51042;49.696;10.808;2022-12-07T14:17:55;98212.03;;;3.55;96.15
64080;BME280;51042;49.696;10.808;2022-12-07T14:20:35;98212.84;;;3.48;97.17
64080;BME280;51042;49.696;10.808;2022-12-07T14:23:02;98219.03;;;3.42;97.72
64080;BME280;51042;49.696;10.808;2022-12-07T14:25:47;98212.88;;;3.38;97.93
64080;BME280;51042;49.696;10.808;2022-12-07T14:28:29;98215.56;;;3.38;98.87
64080;BME280;51042;49.696;10.808;2022-12-07T14:31:00;98215.19;;;3.36;99.44
64080;BME280;51042;49.696;10.808;2022-12-07T14:33:26;98215.56;;;3.34;100.00
64080;BME280;51042;49.696;10.808;2022-12-07T14:35:53;98213.25;;;3.29;100.00
64080;BME280;51042;49.696;10.808;2022-12-07T14:38:23;98212.50;;;3.25;100.00
64080;BME280;51042;49.696;10.808;2022-12-07T14:40:49;98204.38;;;3.18;100.00
64080;BME280;51042;49.696;10.808;2022-12-07T14:43:19;98205.94;;;3.12;100.00
64080;BME280;51042;49.696;10.808;2022-12-07T14:45:45;98205.56;;;3.06;100.00
64080;BME280;51042;49.696;10.808;2022-12-07T14:48:11;98203.28;;;2.98;100.00
64080;BME280;51042;49.696;10.808;2022-12-07T14:50:50;98208.28;;;2.88;100.00
64080;BME280;51042;49.696;10.808;2022-12-07T14:53:18;98202.88;;;2.78;100.00
64080;BME280;51042;49.696;10.808;2022-12-07T14:55:54;98188.94;;;2.69;100.00
64080;BME280;51042;49.696;10.808;2022-12-07T14:58:19;98195.94;;;2.56;100.00
64080;BME280;51042;49.696;10.808;2022-12-07T15:00:45;98194.00;;;2.49;100.00
64080;BME280;51042;49.696;10.808;2022-12-07T15:03:12;98192.84;;;2.50;100.00
64080;BME280;51042;49.696;10.808;2022-12-07T15:05:38;98200.56;;;2.59;100.00
64080;BME280;51042;49.696;10.808;2022-12-07T15:08:04;98198.63;;;2.59;100.00
64080;BME280;51042;49.696;10.808;2022-12-07T15:10:31;98193.97;;;2.53;100.00
64080;BME280;51042;49.696;10.808;2022-12-07T15:12:59;98194.75;;;2.42;100.00
64080;BME280;51042;49.696;10.808;2022-12-07T15:15:43;98209.06;;;2.36;100.00
64080;BME280;51042;49.696;10.808;2022-12-07T15:18:09;98189.34;;;2.32;100.00
64080;BME280;51042;49.696;10.808;2022-12-07T15:20:34;98187.00;;;2.30;100.00
64080;BME280;51042;49.696;10.808;2022-12-07T15:22:59;98183.13;;;2.28;100.00